createdAt,value
2018-03-07T14:44:30.749Z,4.07
2018-03-07T14:46:57.346Z,3.97
2018-03-07T14:49:23.525Z,5.00
2018-03-07T14:51:55.587Z,5.67
2018-03-07T14:54:21.845Z,6.67
2018-03-07T14:56:48.024Z,5.10
2018-03-07T14:59:19.742Z,5.77
2018-03-07T15:01:51.692Z,8.27
2018-03-07T15:04:23.053Z,6.53
2018-03-07T15:08:53.597Z,7.80
2018-03-07T15:11:20.131Z,7.13
2018-03-07T15:13:46.577Z,7.97
2018-03-07T15:16:12.907Z,9.00
2018-03-07T15:18:39.135Z,17.87
2018-03-07T15:21:05.387Z,11.13
2018-03-07T15:23:36.615Z,14.07
2018-03-07T15:26:03.178Z,15.03
2018-03-07T15:28:34.422Z,14.40
2018-03-07T15:31:11.532Z,15.17
2018-03-07T15:33:43.676Z,15.60
2018-03-07T15:36:15.228Z,16.03
2018-03-07T15:38:46.475Z,14.43
2018-03-07T15:41:17.749Z,14.13
2018-03-07T15:43:49.340Z,14.97
2018-03-07T15:46:20.626Z,14.63
2018-03-07T15:48:47.123Z,14.73
2018-03-07T15:51:13.324Z,14.87
2018-03-07T15:53:49.811Z,13.80
2018-03-07T15:58:02.750Z,17.77
2018-03-07T16:00:33.988Z,17.13
2018-03-07T16:03:01.045Z,16.80
2018-03-07T16:05:27.263Z,17.57
2018-03-07T16:07:58.539Z,17.37
2018-03-07T16:10:30.707Z,16.53
2018-03-07T16:13:02.545Z,16.47
2018-03-07T16:15:28.979Z,16.80
2018-03-07T16:17:55.207Z,15.63
2018-03-07T16:20:26.415Z,16.03
2018-03-07T16:22:57.650Z,15.80
2018-03-07T16:25:29.062Z,15.83
2018-03-07T16:28:00.807Z,16.50
2018-03-07T16:30:37.377Z,17.20
2018-03-07T16:33:08.831Z,15.97
2018-03-07T16:35:35.085Z,16.20
2018-03-07T16:38:07.214Z,15.87
2018-03-07T16:40:34.679Z,15.60
2018-03-07T16:43:07.362Z,13.67
2018-03-07T16:45:39.937Z,13.87
2018-03-07T16:48:06.294Z,12.93
2018-03-07T16:50:37.541Z,13.00
2018-03-07T21:07:07.667Z,12.03
2018-03-07T21:15:49.100Z,14.60
2018-03-07T21:21:43.100Z,8.87
2018-03-07T21:24:34.731Z,11.57
2018-03-07T21:27:22.769Z,9.60
2018-03-07T21:32:53.217Z,12.40
2018-03-07T21:41:46.332Z,10.40
2018-03-07T21:44:31.109Z,13.27
2018-03-07T21:47:14.952Z,12.57
2018-03-07T21:49:57.873Z,14.40
2018-03-07T21:52:41.805Z,17.40
2018-03-07T21:55:25.659Z,18.00
2018-03-07T21:58:12.368Z,12.33
2018-03-07T22:00:54.045Z,11.23
2018-03-07T22:03:35.864Z,10.83
2018-03-07T22:06:13.884Z,11.47
2018-03-07T22:08:56.681Z,14.63
2018-03-07T22:11:46.980Z,17.80
2018-03-07T22:14:31.950Z,11.53
2018-03-07T22:17:09.647Z,28.10
2018-03-07T22:19:50.625Z,30.23
2018-03-07T22:22:35.691Z,36.07
2018-03-07T22:25:21.178Z,30.87
2018-03-07T22:28:04.813Z,32.70
2018-03-07T22:30:50.294Z,43.27
2018-03-07T22:33:30.862Z,30.23
2018-03-07T22:36:27.793Z,32.90
2018-03-07T22:39:10.168Z,31.07
2018-03-07T22:41:59.293Z,31.93
2018-03-07T22:44:41.054Z,26.87
2018-03-07T22:47:24.795Z,28.93
2018-03-07T22:50:20.509Z,25.63
2018-03-07T22:53:08.249Z,28.00
2018-03-07T22:55:49.534Z,24.10
2018-03-07T22:58:34.862Z,29.80
2018-03-07T23:01:12.604Z,26.13
2018-03-07T23:03:59.934Z,29.07
2018-03-07T23:06:36.704Z,27.63
2018-03-07T23:09:23.117Z,30.70
2018-03-07T23:12:10.137Z,25.37
2018-03-07T23:14:57.870Z,22.77
2018-03-07T23:17:40.177Z,24.87
2018-03-07T23:20:27.810Z,24.97
2018-03-07T23:23:16.861Z,24.53
2018-03-07T23:26:04.507Z,20.83
2018-03-07T23:28:47.428Z,22.40
2018-03-07T23:31:31.376Z,25.40
2018-03-07T23:34:28.528Z,23.87
2018-03-07T23:37:11.224Z,22.63
2018-03-07T23:39:57.134Z,18.73
2018-03-07T23:42:50.706Z,20.00
2018-03-07T23:45:36.803Z,21.13
2018-03-07T23:48:24.741Z,20.80
2018-03-07T23:51:11.079Z,21.57
2018-03-07T23:54:01.950Z,17.50
2018-03-07T23:56:49.584Z,18.43
2018-03-07T23:59:31.687Z,19.30
